Morrow, Georgia
Current Conditions -  °F | °C
As of 1:52 AM on Friday 31 Oct 2014 (Local Time) from KATL Reporting Station
Few Clouds Few Clouds  
Wind Chill: 45°   Ceiling: Unl
Heat Index: 48°   Visibility: 10mi
Dew Point: 41°   Wind: 7mph
Humidity: 77%   Direction: 310°NW
Pressure: 29.97"   Gusts: NA
Location:  33.58°N, 84.34°W
Report Text: KATL 310552Z 31006KT 10SM FEW250 09/05 A2997 RMK AO2 SLP147 T00890050 10139 20089 56005
Loading
Personal Weather Stations






























Interactive Weather Map
Tropical Storm Tracking
New forecast layout! Learn more

10-Day Weather Forecast

Advertisements
Track Severe Weather on mobile